createdAt,value
2019-03-30T00:01:05.896Z,99.90
2019-03-30T00:03:35.247Z,99.90
2019-03-30T00:06:04.590Z,99.90
2019-03-30T00:08:33.950Z,99.90
2019-03-30T00:11:03.345Z,99.90
2019-03-30T00:13:32.695Z,99.90
2019-03-30T00:16:02.062Z,99.90
2019-03-30T00:18:31.394Z,99.90
2019-03-30T00:21:00.743Z,99.90
2019-03-30T00:23:30.171Z,99.90
2019-03-30T00:25:59.506Z,99.90
2019-03-30T00:28:28.856Z,99.90
2019-03-30T00:30:58.191Z,99.90
2019-03-30T00:33:27.533Z,99.90
2019-03-30T00:35:56.919Z,99.90
2019-03-30T00:38:26.318Z,99.90
2019-03-30T00:40:55.638Z,99.90
2019-03-30T00:43:25.060Z,99.90
2019-03-30T00:45:54.486Z,99.90
2019-03-30T00:48:23.928Z,99.90
2019-03-30T00:50:53.327Z,99.90
2019-03-30T00:53:22.700Z,99.90
2019-03-30T00:55:52.093Z,99.90
2019-03-30T00:58:21.524Z,99.90
2019-03-30T01:00:50.882Z,99.90
2019-03-30T01:03:20.343Z,99.90
2019-03-30T01:05:50.676Z,99.90
2019-03-30T01:08:20.074Z,99.90
2019-03-30T01:10:49.470Z,99.90
2019-03-30T01:13:18.878Z,99.90
2019-03-30T01:15:48.222Z,99.90
2019-03-30T01:18:17.585Z,99.90
2019-03-30T01:20:47.282Z,99.90
2019-03-30T01:23:16.686Z,99.90
2019-03-30T01:25:46.052Z,99.90
2019-03-30T01:28:15.461Z,99.90
2019-03-30T01:30:44.897Z,99.90
2019-03-30T01:33:14.269Z,99.90
2019-03-30T01:35:43.620Z,99.90
2019-03-30T01:38:12.939Z,99.90
2019-03-30T01:40:42.289Z,99.90
2019-03-30T01:43:12.778Z,99.90
2019-03-30T01:45:42.121Z,99.90
2019-03-30T01:48:11.482Z,99.90
2019-03-30T01:50:40.832Z,99.90
2019-03-30T01:53:10.175Z,99.90
2019-03-30T01:55:39.594Z,99.90
2019-03-30T01:58:08.927Z,99.90
2019-03-30T02:00:38.284Z,99.90
2019-03-30T02:03:07.764Z,99.90
2019-03-30T02:05:37.113Z,99.90
2019-03-30T02:08:06.446Z,99.90
2019-03-30T02:10:43.261Z,99.90
2019-03-30T02:13:12.890Z,99.90
2019-03-30T02:15:42.263Z,99.90
2019-03-30T02:18:11.601Z,99.90
2019-03-30T02:20:43.720Z,99.90
2019-03-30T02:23:13.335Z,99.90
2019-03-30T02:25:42.718Z,99.90
2019-03-30T02:28:12.170Z,99.90
2019-03-30T02:30:41.564Z,99.90
2019-03-30T02:33:10.961Z,99.90
2019-03-30T02:35:40.384Z,99.90
2019-03-30T02:38:09.831Z,99.90
2019-03-30T02:40:39.286Z,99.90
2019-03-30T02:43:08.660Z,99.90
2019-03-30T02:45:38.015Z,99.90
2019-03-30T02:48:07.338Z,99.90
2019-03-30T02:50:49.107Z,99.90
2019-03-30T02:53:07.725Z,99.90
2019-03-30T02:55:37.149Z,99.90
2019-03-30T02:58:06.487Z,99.90
2019-03-30T03:00:37.020Z,99.90
2019-03-30T03:03:06.437Z,99.90
2019-03-30T03:05:35.814Z,99.90
2019-03-30T03:08:05.129Z,99.90
2019-03-30T03:10:34.439Z,99.90
2019-03-30T03:13:03.744Z,99.90
2019-03-30T03:15:33.062Z,99.90
2019-03-30T03:18:02.394Z,99.90
2019-03-30T03:20:31.705Z,99.90
2019-03-30T03:23:01.945Z,99.90
2019-03-30T03:25:31.330Z,99.90
2019-03-30T03:28:00.669Z,99.90
2019-03-30T03:30:30.949Z,99.90
2019-03-30T03:33:00.355Z,99.90
2019-03-30T03:35:29.728Z,99.90
2019-03-30T03:37:59.043Z,99.90
2019-03-30T03:40:28.354Z,99.90
2019-03-30T03:42:57.659Z,99.90
2019-03-30T03:45:26.990Z,99.90
2019-03-30T03:47:56.296Z,99.90
2019-03-30T03:50:44.908Z,99.90
2019-03-30T03:53:15.865Z,99.90
2019-03-30T03:55:45.987Z,99.90
2019-03-30T03:58:16.505Z,99.90
2019-03-30T04:00:46.043Z,99.90
2019-03-30T04:03:17.262Z,99.90
2019-03-30T04:05:47.523Z,99.90
2019-03-30T04:08:16.901Z,99.90
2019-03-30T04:10:47.852Z,99.90
2019-03-30T04:13:17.166Z,99.90
2019-03-30T04:15:47.462Z,99.90
2019-03-30T04:18:17.805Z,99.90
2019-03-30T04:20:47.182Z,99.90
2019-03-30T04:23:16.478Z,99.90
2019-03-30T04:25:45.864Z,99.90
2019-03-30T04:28:15.241Z,99.90
2019-03-30T04:30:44.558Z,99.90
2019-03-30T04:33:13.870Z,99.90
2019-03-30T04:35:43.210Z,99.90
2019-03-30T04:38:14.345Z,99.90
2019-03-30T04:40:43.600Z,99.90
2019-03-30T04:43:12.925Z,99.90
2019-03-30T04:45:42.233Z,99.90
2019-03-30T04:48:11.547Z,99.90
2019-03-30T04:50:40.855Z,99.90
2019-03-30T04:53:10.173Z,99.90
2019-03-30T04:55:39.565Z,99.90
2019-03-30T04:58:09.464Z,99.90
2019-03-30T05:00:38.951Z,99.90
2019-03-30T05:03:08.270Z,99.90
2019-03-30T05:05:37.572Z,99.90
2019-03-30T05:08:06.894Z,99.90
2019-03-30T05:10:36.268Z,99.90
2019-03-30T05:13:05.584Z,99.90
2019-03-30T05:15:36.075Z,99.90
2019-03-30T05:18:05.376Z,99.90
2019-03-30T05:20:34.683Z,99.90
2019-03-30T05:23:08.009Z,99.90
2019-03-30T05:25:37.368Z,99.90
2019-03-30T05:28:06.784Z,99.90
2019-03-30T05:30:36.997Z,99.90
2019-03-30T05:33:06.586Z,99.90
2019-03-30T05:35:36.100Z,99.90
2019-03-30T05:38:05.416Z,99.90
2019-03-30T05:40:34.744Z,99.90
2019-03-30T05:43:04.058Z,99.90
2019-03-30T05:45:33.368Z,99.90
2019-03-30T05:48:06.569Z,99.90
2019-03-30T05:50:35.867Z,99.90
2019-03-30T05:53:05.457Z,99.90
2019-03-30T05:55:34.755Z,99.90
2019-03-30T05:58:04.071Z,99.90
2019-03-30T06:00:33.377Z,99.90
2019-03-30T06:03:02.704Z,99.90
2019-03-30T06:05:32.015Z,99.90
2019-03-30T06:08:01.342Z,99.90
2019-03-30T06:10:30.647Z,99.90
2019-03-30T06:12:59.972Z,99.90
2019-03-30T06:15:29.293Z,99.90
2019-03-30T06:17:58.611Z,99.90
2019-03-30T06:20:27.920Z,99.90
2019-03-30T06:22:57.243Z,99.90
2019-03-30T06:25:26.556Z,99.90
2019-03-30T06:27:55.876Z,99.90
2019-03-30T06:30:26.836Z,99.90
2019-03-30T06:32:56.163Z,99.90
2019-03-30T06:35:25.471Z,99.90
2019-03-30T06:37:54.788Z,99.90
2019-03-30T06:40:24.181Z,99.90
2019-03-30T06:42:53.497Z,99.90
2019-03-30T06:45:22.800Z,99.90
2019-03-30T06:47:52.116Z,99.90
2019-03-30T06:50:21.487Z,99.90
2019-03-30T06:52:57.650Z,99.90
2019-03-30T06:55:21.837Z,99.90
2019-03-30T06:57:51.153Z,99.90
2019-03-30T07:00:31.871Z,99.90
2019-03-30T07:03:08.162Z,99.90
2019-03-30T07:05:41.736Z,99.90
2019-03-30T07:08:15.729Z,99.90
2019-03-30T07:10:45.749Z,99.90
2019-03-30T07:13:15.656Z,99.90
2019-03-30T07:15:47.412Z,99.90
2019-03-30T07:18:18.132Z,99.90
2019-03-30T07:20:47.533Z,99.90
2019-03-30T07:23:17.810Z,99.90
2019-03-30T07:25:47.121Z,99.90
2019-03-30T07:28:16.453Z,99.90
2019-03-30T07:30:45.835Z,99.90
2019-03-30T07:33:15.161Z,99.90
2019-03-30T07:35:45.447Z,99.90
2019-03-30T07:38:14.780Z,99.90
2019-03-30T07:40:44.330Z,99.90
2019-03-30T07:43:14.624Z,99.90
2019-03-30T07:45:44.019Z,99.90
2019-03-30T07:48:13.331Z,99.90
2019-03-30T07:50:44.411Z,99.90
2019-03-30T07:53:25.788Z,99.90
2019-03-30T07:55:46.889Z,99.90
2019-03-30T07:58:16.216Z,99.90
2019-03-30T08:00:45.566Z,99.90
2019-03-30T08:03:14.927Z,99.90
2019-03-30T08:05:44.247Z,99.60
2019-03-30T08:08:13.576Z,98.80
2019-03-30T08:10:42.892Z,98.40
2019-03-30T08:13:12.203Z,97.50
2019-03-30T08:15:41.552Z,97.40
2019-03-30T08:18:10.864Z,96.90
2019-03-30T08:20:40.194Z,95.50
2019-03-30T08:23:09.504Z,95.90
2019-03-30T08:25:38.834Z,96.00
2019-03-30T08:28:08.156Z,97.20
2019-03-30T08:30:37.481Z,95.60
2019-03-30T08:33:06.807Z,96.50
2019-03-30T08:35:37.023Z,96.10
2019-03-30T08:38:06.348Z,95.50
2019-03-30T08:40:35.667Z,94.90
2019-03-30T08:43:04.986Z,94.20
2019-03-30T08:45:34.308Z,93.40
2019-03-30T08:48:03.628Z,94.60
2019-03-30T08:50:36.732Z,94.80
2019-03-30T08:53:06.041Z,93.90
2019-03-30T08:55:35.386Z,92.80
2019-03-30T08:58:04.679Z,91.30
2019-03-30T09:00:44.290Z,90.80
2019-03-30T09:03:13.678Z,91.50
2019-03-30T09:05:43.065Z,91.30
2019-03-30T09:08:12.380Z,91.90
2019-03-30T09:10:41.712Z,92.90
2019-03-30T09:13:11.081Z,91.20
2019-03-30T09:15:40.405Z,90.60
2019-03-30T09:18:09.735Z,89.10
2019-03-30T09:20:39.999Z,89.30
2019-03-30T09:23:09.311Z,89.20
2019-03-30T09:25:39.753Z,84.60
2019-03-30T09:28:09.066Z,81.80
2019-03-30T09:30:38.396Z,82.60
2019-03-30T09:33:07.716Z,83.10
2019-03-30T09:35:37.037Z,83.60
2019-03-30T09:38:07.429Z,76.20
2019-03-30T09:40:36.763Z,70.60
2019-03-30T09:43:07.045Z,78.00
2019-03-30T09:45:36.367Z,73.30
2019-03-30T09:48:05.683Z,67.10
2019-03-30T09:50:35.020Z,69.30
2019-03-30T09:53:04.367Z,65.00
2019-03-30T09:55:33.745Z,64.20
2019-03-30T09:58:03.121Z,74.20
2019-03-30T10:00:32.453Z,73.30
2019-03-30T10:03:01.827Z,60.90
2019-03-30T10:05:31.161Z,60.80
2019-03-30T10:08:00.595Z,61.00
2019-03-30T10:10:30.095Z,62.30
2019-03-30T10:12:59.555Z,59.40
2019-03-30T10:15:28.874Z,59.60
2019-03-30T10:17:58.201Z,57.50
2019-03-30T10:20:27.521Z,57.50
2019-03-30T10:22:56.834Z,60.20
2019-03-30T10:25:26.151Z,61.40
2019-03-30T10:27:55.467Z,61.50
2019-03-30T10:30:24.792Z,58.20
2019-03-30T10:32:54.119Z,60.20
2019-03-30T10:35:23.444Z,58.40
2019-03-30T10:37:52.759Z,55.30
2019-03-30T10:40:22.155Z,56.00
2019-03-30T10:42:51.471Z,56.20
2019-03-30T10:45:21.824Z,55.50
2019-03-30T10:47:51.167Z,56.00
2019-03-30T10:50:20.497Z,55.60
2019-03-30T10:52:49.817Z,53.40
2019-03-30T10:55:19.136Z,56.80
2019-03-30T10:57:48.453Z,56.70
2019-03-30T11:00:20.853Z,56.40
2019-03-30T11:02:50.983Z,53.60
2019-03-30T11:05:26.029Z,52.60
2019-03-30T11:07:55.423Z,49.50
2019-03-30T11:10:24.743Z,46.50
2019-03-30T11:12:54.066Z,46.90
2019-03-30T11:15:23.394Z,49.50
2019-03-30T11:17:52.707Z,47.20
2019-03-30T11:20:24.484Z,48.50
2019-03-30T11:22:53.836Z,48.10
2019-03-30T11:25:24.700Z,51.30
2019-03-30T11:27:54.051Z,49.50
2019-03-30T11:30:23.383Z,51.10
2019-03-30T11:32:52.701Z,50.20
2019-03-30T11:35:22.025Z,50.40
2019-03-30T11:37:51.344Z,49.10
2019-03-30T11:40:20.683Z,48.20
2019-03-30T11:42:50.000Z,44.80
2019-03-30T11:45:19.400Z,46.30
2019-03-30T11:47:48.721Z,44.60
2019-03-30T11:50:18.046Z,48.10
2019-03-30T11:52:47.347Z,43.30
2019-03-30T11:55:22.212Z,43.70
2019-03-30T11:57:56.756Z,44.50
2019-03-30T12:00:26.080Z,43.90
2019-03-30T12:02:55.429Z,43.70
2019-03-30T12:05:24.778Z,44.00
2019-03-30T12:07:55.108Z,47.20
2019-03-30T12:10:24.466Z,46.90
2019-03-30T12:12:53.816Z,46.90
2019-03-30T12:15:24.689Z,46.70
2019-03-30T12:17:54.055Z,48.50
2019-03-30T12:20:23.391Z,49.40
2019-03-30T12:22:52.755Z,52.40
2019-03-30T12:25:34.869Z,51.20
2019-03-30T12:27:53.088Z,52.20
2019-03-30T12:30:25.124Z,53.50
2019-03-30T12:32:54.472Z,53.40
2019-03-30T12:35:23.851Z,53.40
2019-03-30T12:37:53.236Z,48.30
2019-03-30T12:40:22.611Z,46.20
2019-03-30T12:42:51.926Z,46.80
2019-03-30T12:45:21.259Z,48.60
2019-03-30T12:47:50.588Z,51.00
2019-03-30T12:50:20.584Z,49.60
2019-03-30T12:52:49.898Z,46.70
2019-03-30T12:55:19.227Z,46.70
2019-03-30T12:57:48.543Z,47.60
2019-03-30T13:00:18.071Z,47.20
2019-03-30T13:02:47.401Z,47.30
2019-03-30T13:05:16.741Z,47.40
2019-03-30T13:07:46.044Z,46.50
2019-03-30T13:10:16.428Z,46.00
2019-03-30T13:12:45.753Z,46.60
2019-03-30T13:15:15.146Z,48.10
2019-03-30T13:17:44.459Z,45.20
2019-03-30T13:20:14.023Z,46.10
2019-03-30T13:22:43.337Z,46.70
2019-03-30T13:25:12.839Z,45.40
2019-03-30T13:27:42.144Z,46.60
2019-03-30T13:30:12.983Z,47.50
2019-03-30T13:32:42.375Z,48.40
2019-03-30T13:35:11.726Z,50.20
2019-03-30T13:37:41.038Z,47.10
2019-03-30T13:40:10.652Z,45.60
2019-03-30T13:42:39.992Z,45.80
2019-03-30T13:45:09.391Z,43.50
2019-03-30T13:47:38.706Z,45.20
2019-03-30T13:50:08.877Z,44.90
2019-03-30T13:52:38.179Z,46.30
2019-03-30T13:55:08.182Z,50.30
2019-03-30T13:57:37.501Z,51.90
2019-03-30T14:00:08.008Z,47.90
2019-03-30T14:02:37.326Z,48.30
2019-03-30T14:05:06.902Z,49.30
2019-03-30T14:07:36.290Z,48.00
2019-03-30T14:10:07.172Z,45.00
2019-03-30T14:12:36.473Z,44.60
2019-03-30T14:15:09.224Z,48.60
2019-03-30T14:17:37.448Z,50.30
2019-03-30T14:20:09.019Z,51.00
2019-03-30T14:22:38.330Z,51.40
2019-03-30T14:25:07.996Z,54.70
2019-03-30T14:27:37.317Z,56.50
2019-03-30T14:30:09.963Z,57.00
2019-03-30T14:32:39.292Z,54.30
2019-03-30T14:35:08.739Z,50.50
2019-03-30T14:37:38.074Z,46.80
2019-03-30T14:40:08.524Z,48.60
2019-03-30T14:42:37.844Z,51.40
2019-03-30T14:45:08.599Z,51.80
2019-03-30T14:47:37.911Z,53.00
2019-03-30T14:50:09.336Z,53.10
2019-03-30T14:52:38.832Z,53.10
2019-03-30T14:55:09.325Z,53.40
2019-03-30T14:57:39.608Z,54.90
2019-03-30T15:00:10.767Z,56.80
2019-03-30T15:02:40.227Z,55.50
2019-03-30T15:05:10.384Z,55.50
2019-03-30T15:07:39.710Z,48.00
2019-03-30T15:10:09.467Z,45.00
2019-03-30T15:12:39.053Z,46.60
2019-03-30T15:15:09.515Z,46.10
2019-03-30T15:17:40.935Z,46.10
2019-03-30T15:20:11.356Z,44.50
2019-03-30T15:22:40.672Z,44.60
2019-03-30T15:25:10.844Z,46.90
2019-03-30T15:27:40.462Z,48.40
2019-03-30T15:30:10.319Z,48.50
2019-03-30T15:32:40.623Z,48.70
2019-03-30T15:35:10.484Z,51.50
2019-03-30T15:37:39.809Z,52.70
2019-03-30T15:40:09.788Z,52.50
2019-03-30T15:42:40.427Z,52.50
2019-03-30T15:45:11.516Z,51.60
2019-03-30T15:47:40.974Z,54.90
2019-03-30T15:50:10.932Z,55.10
2019-03-30T15:52:40.259Z,56.50
2019-03-30T15:55:09.915Z,55.70
2019-03-30T15:57:39.223Z,53.00
2019-03-30T16:00:14.388Z,51.20
2019-03-30T16:02:43.796Z,49.10
2019-03-30T16:05:15.489Z,49.20
2019-03-30T16:07:44.267Z,50.30
2019-03-30T16:10:13.821Z,51.00
2019-03-30T16:12:43.147Z,52.30
2019-03-30T16:15:12.735Z,52.20
2019-03-30T16:17:42.050Z,54.20
2019-03-30T16:20:11.604Z,55.70
2019-03-30T16:22:40.938Z,56.60
2019-03-30T16:25:10.499Z,56.90
2019-03-30T16:27:39.832Z,57.40
2019-03-30T16:30:10.388Z,58.30
2019-03-30T16:32:39.719Z,57.60
2019-03-30T16:35:09.164Z,59.20
2019-03-30T16:37:38.508Z,57.30
2019-03-30T16:40:08.256Z,54.80
2019-03-30T16:42:38.546Z,51.10
2019-03-30T16:45:09.268Z,51.20
2019-03-30T16:47:38.595Z,52.00
2019-03-30T16:50:11.014Z,50.60
2019-03-30T16:52:41.101Z,51.10
2019-03-30T16:55:10.832Z,51.90
2019-03-30T16:57:43.434Z,52.20
2019-03-30T17:00:11.812Z,54.60
2019-03-30T17:02:41.382Z,57.40
2019-03-30T17:05:11.959Z,56.80
2019-03-30T17:07:41.289Z,56.70
2019-03-30T17:10:10.938Z,58.00
2019-03-30T17:12:40.535Z,58.50
2019-03-30T17:15:10.229Z,58.40
2019-03-30T17:17:39.563Z,60.60
2019-03-30T17:20:09.225Z,61.30
2019-03-30T17:22:38.596Z,62.70
2019-03-30T17:25:10.164Z,63.30
2019-03-30T17:27:39.608Z,66.10
2019-03-30T17:30:09.278Z,68.70
2019-03-30T17:32:41.789Z,71.30
2019-03-30T17:35:11.107Z,71.50
2019-03-30T17:37:40.485Z,72.80
2019-03-30T17:40:13.207Z,74.70
2019-03-30T17:42:42.603Z,80.50
2019-03-30T17:45:13.052Z,78.20
2019-03-30T17:47:42.393Z,78.50
2019-03-30T17:50:12.719Z,83.00
2019-03-30T17:52:42.051Z,87.30
2019-03-30T17:55:11.576Z,89.40
2019-03-30T17:57:40.895Z,90.00
2019-03-30T18:00:12.997Z,91.00
2019-03-30T18:02:42.312Z,91.30
2019-03-30T18:05:12.739Z,91.90
2019-03-30T18:07:42.052Z,92.20
2019-03-30T18:10:12.105Z,93.50
2019-03-30T18:12:41.422Z,94.20
2019-03-30T18:15:11.298Z,93.70
2019-03-30T18:17:40.623Z,93.90
2019-03-30T18:20:10.587Z,93.60
2019-03-30T18:22:39.935Z,93.90
2019-03-30T18:25:10.866Z,93.80
2019-03-30T18:27:40.251Z,94.20
2019-03-30T18:30:10.425Z,94.60
2019-03-30T18:32:40.679Z,94.90
2019-03-30T18:35:10.450Z,94.40
2019-03-30T18:37:43.024Z,94.90
2019-03-30T18:40:17.129Z,94.70
2019-03-30T18:42:46.549Z,94.90
2019-03-30T18:45:27.339Z,95.40
2019-03-30T18:48:16.223Z,95.70
2019-03-30T18:50:46.382Z,95.90
2019-03-30T18:53:18.714Z,96.30
2019-03-30T18:55:48.078Z,96.20
2019-03-30T18:58:17.380Z,96.90
2019-03-30T19:00:46.879Z,97.30
2019-03-30T19:03:19.692Z,97.30
2019-03-30T19:05:47.306Z,97.40
2019-03-30T19:08:16.764Z,97.90
2019-03-30T19:10:46.121Z,98.00
2019-03-30T19:13:15.439Z,98.30
2019-03-30T19:15:44.788Z,98.80
2019-03-30T19:18:14.174Z,99.10
2019-03-30T19:20:43.494Z,99.30
2019-03-30T19:23:13.792Z,99.20
2019-03-30T19:25:43.131Z,99.60
2019-03-30T19:28:12.451Z,99.90
2019-03-30T19:30:42.438Z,99.90
2019-03-30T19:33:12.080Z,99.90
2019-03-30T19:35:43.373Z,99.90
2019-03-30T19:38:12.689Z,99.90
2019-03-30T19:40:42.983Z,99.90
2019-03-30T19:43:12.486Z,99.90
2019-03-30T19:46:10.911Z,99.90
2019-03-30T19:48:43.439Z,99.90
2019-03-30T19:51:35.541Z,99.90
2019-03-30T19:54:04.930Z,99.90
2019-03-30T19:56:34.255Z,99.90
2019-03-30T19:59:10.733Z,99.90
2019-03-30T20:01:34.796Z,99.90
2019-03-30T20:04:07.593Z,99.90
2019-03-30T20:06:35.244Z,99.90
2019-03-30T20:09:07.598Z,99.90
2019-03-30T20:11:41.169Z,99.90
2019-03-30T20:14:10.496Z,99.90
2019-03-30T20:16:42.192Z,99.90
2019-03-30T20:19:12.500Z,99.90
2019-03-30T20:21:41.869Z,99.90
2019-03-30T20:24:11.179Z,99.90
2019-03-30T20:26:40.498Z,99.90
2019-03-30T20:29:24.414Z,99.90
2019-03-30T20:31:40.830Z,99.90
2019-03-30T20:34:10.146Z,99.90
2019-03-30T20:36:39.575Z,99.90
2019-03-30T20:39:09.489Z,99.90
2019-03-30T20:41:38.986Z,99.90
2019-03-30T20:44:08.309Z,99.90
2019-03-30T20:46:37.638Z,99.90
2019-03-30T20:49:17.023Z,99.90
2019-03-30T20:51:48.283Z,99.90
2019-03-30T20:54:17.593Z,99.90
2019-03-30T20:56:46.914Z,99.90
2019-03-30T20:59:17.188Z,99.90
2019-03-30T21:01:46.508Z,99.90
2019-03-30T21:04:21.875Z,99.90
2019-03-30T21:06:52.886Z,99.90
2019-03-30T21:09:22.191Z,99.90
2019-03-30T21:11:51.547Z,99.90
2019-03-30T21:14:20.856Z,99.90
2019-03-30T21:16:50.184Z,99.90
2019-03-30T21:19:19.586Z,99.90
2019-03-30T21:21:50.653Z,99.90
2019-03-30T21:24:20.936Z,99.90
2019-03-30T21:26:50.257Z,99.90
2019-03-30T21:29:21.585Z,99.90
2019-03-30T21:31:50.903Z,99.90
2019-03-30T21:34:20.215Z,99.90
2019-03-30T21:36:49.535Z,99.90
2019-03-30T21:39:18.864Z,99.90
2019-03-30T21:41:50.160Z,99.90
2019-03-30T21:44:22.353Z,99.90
2019-03-30T21:46:50.571Z,99.90
2019-03-30T21:49:20.807Z,99.90
2019-03-30T21:51:50.120Z,99.90
2019-03-30T21:54:19.440Z,99.90
2019-03-30T21:56:48.761Z,99.90
2019-03-30T21:59:22.048Z,99.90
2019-03-30T22:01:52.580Z,99.90
2019-03-30T22:04:22.941Z,99.90
2019-03-30T22:06:52.365Z,99.90
2019-03-30T22:09:21.677Z,99.90
2019-03-30T22:11:51.002Z,99.90
2019-03-30T22:14:20.333Z,99.90
2019-03-30T22:16:49.648Z,99.90
2019-03-30T22:19:18.962Z,99.90
2019-03-30T22:21:48.287Z,99.90
2019-03-30T22:24:17.599Z,99.90
2019-03-30T22:26:46.923Z,99.90
2019-03-30T22:29:16.235Z,99.90
2019-03-30T22:31:45.565Z,99.90
2019-03-30T22:34:14.879Z,99.90
2019-03-30T22:36:45.171Z,99.90
2019-03-30T22:39:14.555Z,99.90
2019-03-30T22:41:43.879Z,99.90
2019-03-30T22:44:13.194Z,99.90
2019-03-30T22:46:42.513Z,99.90
2019-03-30T22:49:11.830Z,99.90
2019-03-30T22:51:41.156Z,99.90
2019-03-30T22:54:12.079Z,99.90
2019-03-30T22:56:41.427Z,99.90
2019-03-30T22:59:10.737Z,99.90
2019-03-30T23:01:40.087Z,99.90
2019-03-30T23:04:12.360Z,99.90
2019-03-30T23:06:41.689Z,99.90
2019-03-30T23:09:11.590Z,99.90
2019-03-30T23:11:41.209Z,99.90
2019-03-30T23:14:10.520Z,99.90
2019-03-30T23:16:44.170Z,99.90
2019-03-30T23:19:13.540Z,99.90
2019-03-30T23:21:42.887Z,99.90
2019-03-30T23:24:12.230Z,99.90
2019-03-30T23:26:42.529Z,99.90
2019-03-30T23:29:11.833Z,99.90
2019-03-30T23:31:41.220Z,99.90
2019-03-30T23:34:11.519Z,99.90
2019-03-30T23:36:41.811Z,99.90
2019-03-30T23:39:11.125Z,99.90
2019-03-30T23:41:40.448Z,99.90
2019-03-30T23:44:09.755Z,99.90
2019-03-30T23:46:39.092Z,99.90
2019-03-30T23:49:08.404Z,99.90
2019-03-30T23:51:37.715Z,99.90
2019-03-30T23:54:10.128Z,99.90
2019-03-30T23:56:39.431Z,99.90
2019-03-30T23:59:08.748Z,99.90
